sensor_id;sensor_type;location;lat;lon;timestamp;pressure;altitude;pressure_sealevel;temperature;humidity
65175;BME280;51761;42.126;24.752;2023-05-11T00:00:28;100107.59;;;10.58;84.56
65175;BME280;51761;42.126;24.752;2023-05-11T00:02:54;100104.88;;;10.51;85.00
65175;BME280;51761;42.126;24.752;2023-05-11T00:05:19;100104.50;;;10.45;85.39
65175;BME280;51761;42.126;24.752;2023-05-11T00:07:45;100099.38;;;10.33;85.94
65175;BME280;51761;42.126;24.752;2023-05-11T00:10:10;100108.94;;;10.39;85.88
65175;BME280;51761;42.126;24.752;2023-05-11T00:12:36;100110.53;;;10.37;86.43
65175;BME280;51761;42.126;24.752;2023-05-11T00:15:02;100114.22;;;10.27;86.87
65175;BME280;51761;42.126;24.752;2023-05-11T00:17:28;100113.47;;;10.19;87.38
65175;BME280;51761;42.126;24.752;2023-05-11T00:19:53;100115.84;;;10.21;87.40
65175;BME280;51761;42.126;24.752;2023-05-11T00:22:18;100123.81;;;10.19;88.06
65175;BME280;51761;42.126;24.752;2023-05-11T00:24:44;100125.84;;;10.15;88.03
65175;BME280;51761;42.126;24.752;2023-05-11T00:27:10;100123.81;;;10.19;88.02
65175;BME280;51761;42.126;24.752;2023-05-11T00:29:35;100100.78;;;10.08;87.48
65175;BME280;51761;42.126;24.752;2023-05-11T00:32:01;100121.44;;;10.21;87.88
65175;BME280;51761;42.126;24.752;2023-05-11T00:34:26;100127.41;;;10.19;87.96
65175;BME280;51761;42.126;24.752;2023-05-11T00:36:52;100121.84;;;10.16;87.89
65175;BME280;51761;42.126;24.752;2023-05-11T00:39:17;100118.28;;;10.15;88.32
65175;BME280;51761;42.126;24.752;2023-05-11T00:41:43;100120.69;;;10.13;88.59
65175;BME280;51761;42.126;24.752;2023-05-11T00:44:08;100127.13;;;9.96;88.97
65175;BME280;51761;42.126;24.752;2023-05-11T00:46:34;100123.13;;;9.97;89.39
65175;BME280;51761;42.126;24.752;2023-05-11T00:49:00;100129.50;;;9.94;89.88
65175;BME280;51761;42.126;24.752;2023-05-11T00:51:26;100132.31;;;9.98;90.06
65175;BME280;51761;42.126;24.752;2023-05-11T00:53:52;100111.63;;;9.88;89.55
65175;BME280;51761;42.126;24.752;2023-05-11T00:56:17;100129.94;;;9.93;89.94
65175;BME280;51761;42.126;24.752;2023-05-11T00:58:44;100111.22;;;9.86;89.90
65175;BME280;51761;42.126;24.752;2023-05-11T01:01:10;100124.69;;;10.05;89.55
65175;BME280;51761;42.126;24.752;2023-05-11T01:03:35;100118.34;;;10.05;89.16
65175;BME280;51761;42.126;24.752;2023-05-11T01:06:29;100119.16;;;10.02;89.38
65175;BME280;51761;42.126;24.752;2023-05-11T01:09:06;100124.31;;;9.96;89.80
65175;BME280;51761;42.126;24.752;2023-05-11T01:11:43;100125.53;;;9.92;90.87
65175;BME280;51761;42.126;24.752;2023-05-11T01:14:22;100104.50;;;9.73;90.35
65175;BME280;51761;42.126;24.752;2023-05-11T01:16:56;100120.41;;;9.80;90.53
65175;BME280;51761;42.126;24.752;2023-05-11T01:21:58;100107.72;;;9.72;90.41
65175;BME280;51761;42.126;24.752;2023-05-11T01:24:49;100118.88;;;9.72;91.02
65175;BME280;51761;42.126;24.752;2023-05-11T01:32:45;100139.13;;;9.83;91.41
65175;BME280;51761;42.126;24.752;2023-05-11T01:35:15;100122.44;;;9.76;91.10
65175;BME280;51761;42.126;24.752;2023-05-11T01:37:47;100135.91;;;9.88;91.56
65175;BME280;51761;42.126;24.752;2023-05-11T01:40:16;100138.31;;;9.93;90.93
65175;BME280;51761;42.126;24.752;2023-05-11T01:43:16;100135.53;;;9.86;91.38
65175;BME280;51761;42.126;24.752;2023-05-11T01:45:42;100102.91;;;9.76;91.13
65175;BME280;51761;42.126;24.752;2023-05-11T01:48:13;100137.97;;;9.80;91.51
65175;BME280;51761;42.126;24.752;2023-05-11T01:50:41;100123.97;;;9.84;91.56
65175;BME280;51761;42.126;24.752;2023-05-11T01:53:08;100133.13;;;9.95;91.64
65175;BME280;51761;42.126;24.752;2023-05-11T01:55:35;100127.91;;;9.97;91.26
65175;BME280;51761;42.126;24.752;2023-05-11T01:58:03;100132.31;;;9.98;91.11
65175;BME280;51761;42.126;24.752;2023-05-11T02:00:31;100138.25;;;10.10;90.68
65175;BME280;51761;42.126;24.752;2023-05-11T02:02:58;100137.00;;;10.15;90.35
65175;BME280;51761;42.126;24.752;2023-05-11T02:05:26;100126.28;;;9.99;91.01
65175;BME280;51761;42.126;24.752;2023-05-11T02:07:54;100118.72;;;10.07;90.88
65175;BME280;51761;42.126;24.752;2023-05-11T02:10:24;100117.53;;;9.97;91.07
65175;BME280;51761;42.126;24.752;2023-05-11T02:12:52;100128.28;;;10.09;90.94
65175;BME280;51761;42.126;24.752;2023-05-11T02:15:19;100122.31;;;10.07;90.73
65175;BME280;51761;42.126;24.752;2023-05-11T02:17:46;100127.09;;;10.00;91.46
65175;BME280;51761;42.126;24.752;2023-05-11T02:20:12;100129.50;;;10.05;91.07
65175;BME280;51761;42.126;24.752;2023-05-11T02:22:41;100125.13;;;10.04;91.54
65175;BME280;51761;42.126;24.752;2023-05-11T02:25:08;100098.44;;;9.89;91.42
65175;BME280;51761;42.126;24.752;2023-05-11T02:27:34;100133.09;;;10.02;91.69
65175;BME280;51761;42.126;24.752;2023-05-11T02:30:02;100120.34;;;10.01;91.45
65175;BME280;51761;42.126;24.752;2023-05-11T02:32:29;100128.69;;;10.04;91.33
65175;BME280;51761;42.126;24.752;2023-05-11T02:35:03;100129.91;;;10.00;91.74
65175;BME280;51761;42.126;24.752;2023-05-11T02:37:32;100130.31;;;9.95;92.03
65175;BME280;51761;42.126;24.752;2023-05-11T02:40:03;100116.34;;;9.98;91.32
65175;BME280;51761;42.126;24.752;2023-05-11T02:42:36;100092.91;;;9.82;91.87
65175;BME280;51761;42.126;24.752;2023-05-11T02:45:06;100123.53;;;10.03;92.08
65175;BME280;51761;42.126;24.752;2023-05-11T02:47:40;100118.72;;;10.03;91.83
65175;BME280;51761;42.126;24.752;2023-05-11T02:50:08;100133.09;;;10.02;91.99
65175;BME280;51761;42.126;24.752;2023-05-11T02:52:35;100098.03;;;9.94;91.36
65175;BME280;51761;42.126;24.752;2023-05-11T02:55:04;100143.84;;;10.07;91.93
65175;BME280;51761;42.126;24.752;2023-05-11T02:57:30;100141.06;;;10.00;91.95
65175;BME280;51761;42.126;24.752;2023-05-11T02:59:56;100133.13;;;9.91;92.17
65175;BME280;51761;42.126;24.752;2023-05-11T03:02:22;100136.72;;;9.88;91.96
65175;BME280;51761;42.126;24.752;2023-05-11T03:04:48;100139.13;;;9.83;92.16
65175;BME280;51761;42.126;24.752;2023-05-11T03:07:13;100139.53;;;9.88;91.86
65175;BME280;51761;42.126;24.752;2023-05-11T03:09:39;100150.28;;;9.83;92.47
65175;BME280;51761;42.126;24.752;2023-05-11T03:12:05;100142.75;;;9.76;92.44
65175;BME280;51761;42.126;24.752;2023-05-11T03:14:34;100140.72;;;9.84;93.87
65175;BME280;51761;42.126;24.752;2023-05-11T03:17:01;100131.97;;;9.82;92.95
65175;BME280;51761;42.126;24.752;2023-05-11T03:19:28;100118.06;;;9.75;92.77
65175;BME280;51761;42.126;24.752;2023-05-11T03:21:55;100133.97;;;9.78;92.88
65175;BME280;51761;42.126;24.752;2023-05-11T03:24:22;100114.09;;;9.69;92.41
65175;BME280;51761;42.126;24.752;2023-05-11T03:26:49;100153.09;;;9.83;92.86
65175;BME280;51761;42.126;24.752;2023-05-11T03:29:16;100151.53;;;9.78;91.84
65175;BME280;51761;42.126;24.752;2023-05-11T03:31:42;100133.25;;;9.60;92.20
65175;BME280;51761;42.126;24.752;2023-05-11T03:34:07;100153.97;;;9.59;92.95
65175;BME280;51761;42.126;24.752;2023-05-11T03:36:33;100156.75;;;9.59;93.24
65175;BME280;51761;42.126;24.752;2023-05-11T03:39:00;100154.78;;;9.56;93.67
65175;BME280;51761;42.126;24.752;2023-05-11T03:41:26;100136.50;;;9.48;93.70
65175;BME280;51761;42.126;24.752;2023-05-11T03:43:57;100144.84;;;9.44;93.84
65175;BME280;51761;42.126;24.752;2023-05-11T03:46:24;100157.97;;;9.54;94.19
65175;BME280;51761;42.126;24.752;2023-05-11T03:48:51;100157.19;;;9.54;94.00
65175;BME280;51761;42.126;24.752;2023-05-11T03:51:18;100157.19;;;9.57;94.09
65175;BME280;51761;42.126;24.752;2023-05-11T03:53:44;100153.16;;;9.69;93.67
65175;BME280;51761;42.126;24.752;2023-05-11T03:56:10;100154.78;;;9.59;93.55
65175;BME280;51761;42.126;24.752;2023-05-11T03:58:39;100149.13;;;9.77;92.74
65175;BME280;51761;42.126;24.752;2023-05-11T04:01:06;100157.09;;;9.78;92.21
65175;BME280;51761;42.126;24.752;2023-05-11T04:03:32;100157.09;;;9.75;92.44
65175;BME280;51761;42.126;24.752;2023-05-11T04:05:58;100152.34;;;9.72;92.59
65175;BME280;51761;42.126;24.752;2023-05-11T04:08:23;100154.72;;;9.73;92.88
65175;BME280;51761;42.126;24.752;2023-05-11T04:10:49;100159.09;;;9.78;92.80
65175;BME280;51761;42.126;24.752;2023-05-11T04:13:14;100141.19;;;9.72;92.45
65175;BME280;51761;42.126;24.752;2023-05-11T04:15:40;100159.03;;;9.88;92.24
65175;BME280;51761;42.126;24.752;2023-05-11T04:18:05;100159.00;;;9.92;92.35
65175;BME280;51761;42.126;24.752;2023-05-11T04:20:31;100165.38;;;10.03;92.02
65175;BME280;51761;42.126;24.752;2023-05-11T04:22:56;100166.97;;;10.07;91.36
65175;BME280;51761;42.126;24.752;2023-05-11T04:25:22;100152.59;;;10.09;91.02
65175;BME280;51761;42.126;24.752;2023-05-11T04:27:47;100149.84;;;10.02;91.06
65175;BME280;51761;42.126;24.752;2023-05-11T04:30:14;100177.72;;;10.05;91.09
65175;BME280;51761;42.126;24.752;2023-05-11T04:32:39;100148.66;;;9.96;90.85
65175;BME280;51761;42.126;24.752;2023-05-11T04:35:05;100178.06;;;10.18;90.98
65175;BME280;51761;42.126;24.752;2023-05-11T04:37:31;100176.06;;;10.18;90.36
65175;BME280;51761;42.126;24.752;2023-05-11T04:39:56;100177.25;;;10.21;90.44
65175;BME280;51761;42.126;24.752;2023-05-11T04:42:22;100176.41;;;10.31;89.83
65175;BME280;51761;42.126;24.752;2023-05-11T04:44:47;100175.94;;;10.39;89.34
65175;BME280;51761;42.126;24.752;2023-05-11T04:47:13;100174.69;;;10.51;88.68
65175;BME280;51761;42.126;24.752;2023-05-11T04:49:39;100152.75;;;10.46;88.16
65175;BME280;51761;42.126;24.752;2023-05-11T04:52:05;100162.25;;;10.59;88.37
65175;BME280;51761;42.126;24.752;2023-05-11T04:54:30;100172.47;;;10.79;87.48
65175;BME280;51761;42.126;24.752;2023-05-11T04:56:56;100169.31;;;10.74;87.47
65175;BME280;51761;42.126;24.752;2023-05-11T04:59:21;100171.63;;;10.82;86.59
65175;BME280;51761;42.126;24.752;2023-05-11T05:01:47;100168.53;;;10.70;86.79
65175;BME280;51761;42.126;24.752;2023-05-11T05:04:12;100168.47;;;10.77;87.21
65175;BME280;51761;42.126;24.752;2023-05-11T05:06:38;100155.06;;;10.58;86.90
65175;BME280;51761;42.126;24.752;2023-05-11T05:09:04;100173.06;;;11.00;94.71
65175;BME280;51761;42.126;24.752;2023-05-11T05:11:29;100178.72;;;10.97;87.32
65175;BME280;51761;42.126;24.752;2023-05-11T05:13:54;100182.50;;;11.17;87.75
65175;BME280;51761;42.126;24.752;2023-05-11T05:16:20;100169.03;;;11.08;85.84
65175;BME280;51761;42.126;24.752;2023-05-11T05:18:45;100178.22;;;11.05;86.16
65175;BME280;51761;42.126;24.752;2023-05-11T05:21:11;100178.28;;;11.42;87.48
65175;BME280;51761;42.126;24.752;2023-05-11T05:23:36;100168.38;;;11.34;83.51
65175;BME280;51761;42.126;24.752;2023-05-11T05:26:02;100182.22;;;11.48;83.82
65175;BME280;51761;42.126;24.752;2023-05-11T05:28:27;100179.72;;;11.61;82.69
65175;BME280;51761;42.126;24.752;2023-05-11T05:30:53;100170.38;;;11.74;83.77
65175;BME280;51761;42.126;24.752;2023-05-11T05:33:18;100190.69;;;11.78;82.14
65175;BME280;51761;42.126;24.752;2023-05-11T05:35:44;100171.94;;;12.09;84.89
65175;BME280;51761;42.126;24.752;2023-05-11T05:38:11;100185.22;;;12.01;80.07
65175;BME280;51761;42.126;24.752;2023-05-11T05:40:36;100191.97;;;12.04;80.65
65175;BME280;51761;42.126;24.752;2023-05-11T05:43:04;100196.09;;;12.26;79.75
65175;BME280;51761;42.126;24.752;2023-05-11T05:45:29;100205.09;;;12.40;78.47
65175;BME280;51761;42.126;24.752;2023-05-11T05:47:55;100197.06;;;12.42;77.89
65175;BME280;51761;42.126;24.752;2023-05-11T05:50:21;100206.97;;;12.50;78.17
65175;BME280;51761;42.126;24.752;2023-05-11T05:52:47;100173.44;;;12.43;77.41
65175;BME280;51761;42.126;24.752;2023-05-11T05:55:12;100175.78;;;12.48;76.91
65175;BME280;51761;42.126;24.752;2023-05-11T05:57:38;100197.25;;;12.58;76.88
65175;BME280;51761;42.126;24.752;2023-05-11T06:00:03;100179.09;;;12.40;76.17
65175;BME280;51761;42.126;24.752;2023-05-11T06:02:29;100177.47;;;12.42;76.40
65175;BME280;51761;42.126;24.752;2023-05-11T06:04:55;100202.78;;;12.61;75.42
65175;BME280;51761;42.126;24.752;2023-05-11T06:07:20;100206.13;;;12.53;76.30
65175;BME280;51761;42.126;24.752;2023-05-11T06:09:46;100214.78;;;12.62;76.20
65175;BME280;51761;42.126;24.752;2023-05-11T06:12:12;100211.03;;;12.72;74.87
65175;BME280;51761;42.126;24.752;2023-05-11T06:14:37;100171.88;;;12.68;74.53
65175;BME280;51761;42.126;24.752;2023-05-11T06:17:03;100178.16;;;12.76;74.39
65175;BME280;51761;42.126;24.752;2023-05-11T06:19:28;100210.47;;;12.84;73.14
65175;BME280;51761;42.126;24.752;2023-05-11T06:21:54;100203.56;;;12.88;73.01
65175;BME280;51761;42.126;24.752;2023-05-11T06:24:19;100195.75;;;13.03;72.45
65175;BME280;51761;42.126;24.752;2023-05-11T06:26:45;100209.78;;;13.03;72.38
65175;BME280;51761;42.126;24.752;2023-05-11T06:29:10;100204.59;;;13.01;73.33
65175;BME280;51761;42.126;24.752;2023-05-11T06:31:36;100210.25;;;12.98;71.39
65175;BME280;51761;42.126;24.752;2023-05-11T06:34:01;100205.75;;;13.04;71.75
65175;BME280;51761;42.126;24.752;2023-05-11T06:36:27;100183.88;;;12.95;71.47
65175;BME280;51761;42.126;24.752;2023-05-11T06:38:53;100206.19;;;13.02;71.23
65175;BME280;51761;42.126;24.752;2023-05-11T06:41:18;100202.53;;;13.05;71.64
65175;BME280;51761;42.126;24.752;2023-05-11T06:43:44;100199.88;;;13.21;70.64
65175;BME280;51761;42.126;24.752;2023-05-11T06:46:09;100173.94;;;13.37;69.81
65175;BME280;51761;42.126;24.752;2023-05-11T06:48:40;100207.13;;;13.84;67.56
65175;BME280;51761;42.126;24.752;2023-05-11T06:51:09;100178.91;;;13.91;66.94
65175;BME280;51761;42.126;24.752;2023-05-11T06:53:34;100188.34;;;14.20;65.85
65175;BME280;51761;42.126;24.752;2023-05-11T06:56:00;100190.19;;;14.46;65.75
65175;BME280;51761;42.126;24.752;2023-05-11T06:58:25;100199.50;;;14.59;64.65
65175;BME280;51761;42.126;24.752;2023-05-11T07:00:51;100180.22;;;14.77;63.99
65175;BME280;51761;42.126;24.752;2023-05-11T07:03:16;100185.06;;;14.92;61.46
65175;BME280;51761;42.126;24.752;2023-05-11T07:05:42;100199.31;;;15.01;61.23
65175;BME280;51761;42.126;24.752;2023-05-11T07:08:07;100203.88;;;14.79;62.04
65175;BME280;51761;42.126;24.752;2023-05-11T07:10:33;100160.25;;;14.55;62.65
65175;BME280;51761;42.126;24.752;2023-05-11T07:12:59;100197.50;;;14.59;63.03
65175;BME280;51761;42.126;24.752;2023-05-11T07:15:24;100195.97;;;14.39;64.23
65175;BME280;51761;42.126;24.752;2023-05-11T07:17:50;100185.84;;;14.41;64.01
65175;BME280;51761;42.126;24.752;2023-05-11T07:20:16;100187.50;;;14.58;63.63
65175;BME280;51761;42.126;24.752;2023-05-11T07:22:42;100197.31;;;14.50;64.13
65175;BME280;51761;42.126;24.752;2023-05-11T07:25:07;100198.66;;;14.62;63.13
65175;BME280;51761;42.126;24.752;2023-05-11T07:27:36;100192.31;;;14.58;64.05
65175;BME280;51761;42.126;24.752;2023-05-11T07:30:02;100185.75;;;14.64;62.42
65175;BME280;51761;42.126;24.752;2023-05-11T07:32:28;100193.78;;;14.98;61.97
65175;BME280;51761;42.126;24.752;2023-05-11T07:34:53;100183.94;;;15.38;60.56
65175;BME280;51761;42.126;24.752;2023-05-11T07:37:19;100181.94;;;15.38;59.30
65175;BME280;51761;42.126;24.752;2023-05-11T07:39:44;100197.13;;;15.57;58.29
65175;BME280;51761;42.126;24.752;2023-05-11T07:42:10;100202.50;;;15.35;59.19
65175;BME280;51761;42.126;24.752;2023-05-11T07:44:35;100198.06;;;15.02;60.43
65175;BME280;51761;42.126;24.752;2023-05-11T07:47:01;100171.16;;;15.49;59.20
65175;BME280;51761;42.126;24.752;2023-05-11T07:49:26;100189.81;;;15.88;58.33
65175;BME280;51761;42.126;24.752;2023-05-11T07:51:52;100182.09;;;16.04;58.01
65175;BME280;51761;42.126;24.752;2023-05-11T07:54:17;100178.25;;;16.39;56.94
65175;BME280;51761;42.126;24.752;2023-05-11T07:56:43;100168.78;;;15.92;57.60
65175;BME280;51761;42.126;24.752;2023-05-11T07:59:08;100189.56;;;15.54;58.82
65175;BME280;51761;42.126;24.752;2023-05-11T08:01:34;100172.88;;;14.99;61.31
65175;BME280;51761;42.126;24.752;2023-05-11T08:04:00;100191.75;;;15.14;61.13
65175;BME280;51761;42.126;24.752;2023-05-11T08:06:25;100192.03;;;15.04;61.63
65175;BME280;51761;42.126;24.752;2023-05-11T08:08:51;100172.13;;;14.79;62.81
65175;BME280;51761;42.126;24.752;2023-05-11T08:11:16;100164.41;;;14.83;63.47
65175;BME280;51761;42.126;24.752;2023-05-11T08:13:42;100181.38;;;14.95;62.76
65175;BME280;51761;42.126;24.752;2023-05-11T08:16:07;100185.88;;;15.25;61.55
65175;BME280;51761;42.126;24.752;2023-05-11T08:18:33;100172.06;;;14.98;61.48
65175;BME280;51761;42.126;24.752;2023-05-11T08:20:58;100187.19;;;15.04;61.85
65175;BME280;51761;42.126;24.752;2023-05-11T08:23:24;100181.13;;;15.06;62.66
65175;BME280;51761;42.126;24.752;2023-05-11T08:25:51;100173.66;;;14.83;62.76
65175;BME280;51761;42.126;24.752;2023-05-11T08:28:17;100172.59;;;14.93;63.18
65175;BME280;51761;42.126;24.752;2023-05-11T08:30:43;100189.91;;;14.92;63.19
65175;BME280;51761;42.126;24.752;2023-05-11T08:33:09;100194.47;;;14.86;62.94
65175;BME280;51761;42.126;24.752;2023-05-11T08:35:34;100170.63;;;14.74;62.68
65175;BME280;51761;42.126;24.752;2023-05-11T08:38:00;100185.25;;;14.85;62.62
65175;BME280;51761;42.126;24.752;2023-05-11T08:40:26;100176.75;;;14.89;63.03
65175;BME280;51761;42.126;24.752;2023-05-11T08:42:54;100193.88;;;14.59;63.27
65175;BME280;51761;42.126;24.752;2023-05-11T08:45:20;100190.59;;;14.80;63.89
65175;BME280;51761;42.126;24.752;2023-05-11T08:47:47;100188.16;;;14.98;63.03
65175;BME280;51761;42.126;24.752;2023-05-11T08:50:13;100188.50;;;15.16;62.58
65175;BME280;51761;42.126;24.752;2023-05-11T08:52:39;100179.66;;;15.33;62.62
65175;BME280;51761;42.126;24.752;2023-05-11T08:55:06;100166.00;;;15.76;61.75
65175;BME280;51761;42.126;24.752;2023-05-11T08:57:33;100177.81;;;16.40;62.06
65175;BME280;51761;42.126;24.752;2023-05-11T09:00:01;100155.84;;;16.48;57.07
65175;BME280;51761;42.126;24.752;2023-05-11T09:02:27;100170.72;;;17.11;55.95
65175;BME280;51761;42.126;24.752;2023-05-11T09:04:53;100165.53;;;16.97;54.67
65175;BME280;51761;42.126;24.752;2023-05-11T09:07:20;100157.63;;;16.67;55.79
65175;BME280;51761;42.126;24.752;2023-05-11T09:09:46;100179.78;;;16.81;56.56
65175;BME280;51761;42.126;24.752;2023-05-11T09:12:12;100185.28;;;16.84;56.83
65175;BME280;51761;42.126;24.752;2023-05-11T09:14:38;100163.50;;;16.47;56.73
65175;BME280;51761;42.126;24.752;2023-05-11T09:17:03;100160.59;;;16.51;57.58
65175;BME280;51761;42.126;24.752;2023-05-11T09:19:29;100174.56;;;16.92;56.69
65175;BME280;51761;42.126;24.752;2023-05-11T09:21:55;100168.34;;;16.72;56.22
65175;BME280;51761;42.126;24.752;2023-05-11T09:24:21;100166.00;;;16.58;57.06
65175;BME280;51761;42.126;24.752;2023-05-11T09:26:47;100159.88;;;16.97;56.00
65175;BME280;51761;42.126;24.752;2023-05-11T09:29:12;100141.47;;;17.17;56.97
65175;BME280;51761;42.126;24.752;2023-05-11T09:31:40;100144.13;;;17.46;52.93
65175;BME280;51761;42.126;24.752;2023-05-11T09:34:13;100144.44;;;17.48;54.04
65175;BME280;51761;42.126;24.752;2023-05-11T09:36:40;100144.69;;;17.41;54.86
65175;BME280;51761;42.126;24.752;2023-05-11T09:39:06;100141.84;;;17.53;53.76
65175;BME280;51761;42.126;24.752;2023-05-11T09:41:32;100143.22;;;17.36;53.28
65175;BME280;51761;42.126;24.752;2023-05-11T09:44:14;100121.88;;;16.89;54.14
65175;BME280;51761;42.126;24.752;2023-05-11T09:46:41;100137.19;;;17.00;54.23
65175;BME280;51761;42.126;24.752;2023-05-11T09:49:08;100136.97;;;16.95;53.68
65175;BME280;51761;42.126;24.752;2023-05-11T09:51:36;100128.72;;;17.13;53.16
65175;BME280;51761;42.126;24.752;2023-05-11T09:54:16;100124.28;;;17.37;52.01
65175;BME280;51761;42.126;24.752;2023-05-11T09:56:53;100136.19;;;17.74;51.16
65175;BME280;51761;42.126;24.752;2023-05-11T10:02:18;100133.47;;;18.26;48.87
65175;BME280;51761;42.126;24.752;2023-05-11T10:04:45;100114.88;;;18.25;49.73
65175;BME280;51761;42.126;24.752;2023-05-11T10:07:31;100126.09;;;17.86;51.00
65175;BME280;51761;42.126;24.752;2023-05-11T10:09:59;100115.84;;;17.12;52.00
65175;BME280;51761;42.126;24.752;2023-05-11T10:12:27;100123.25;;;17.31;53.11
65175;BME280;51761;42.126;24.752;2023-05-11T10:15:04;100115.94;;;17.08;52.63
65175;BME280;51761;42.126;24.752;2023-05-11T10:17:30;100101.88;;;16.96;53.30
65175;BME280;51761;42.126;24.752;2023-05-11T10:19:56;100122.38;;;17.21;54.26
65175;BME280;51761;42.126;24.752;2023-05-11T10:22:24;100109.69;;;17.26;54.00
65175;BME280;51761;42.126;24.752;2023-05-11T10:24:50;100108.53;;;17.69;55.77
65175;BME280;51761;42.126;24.752;2023-05-11T10:27:17;100098.03;;;17.91;50.37
65175;BME280;51761;42.126;24.752;2023-05-11T10:29:43;100106.84;;;18.24;51.24
65175;BME280;51761;42.126;24.752;2023-05-11T10:32:10;100080.56;;;18.36;49.03
65175;BME280;51761;42.126;24.752;2023-05-11T10:34:36;100095.03;;;18.86;48.15
65175;BME280;51761;42.126;24.752;2023-05-11T10:37:05;100102.34;;;19.14;48.11
65175;BME280;51761;42.126;24.752;2023-05-11T10:39:31;100097.47;;;18.57;48.36
65175;BME280;51761;42.126;24.752;2023-05-11T10:49:44;100106.06;;;18.45;48.62
65175;BME280;51761;42.126;24.752;2023-05-11T10:52:21;100098.59;;;18.60;48.60
65175;BME280;51761;42.126;24.752;2023-05-11T10:55:58;100092.19;;;19.61;46.86
65175;BME280;51761;42.126;24.752;2023-05-11T10:58:07;100090.97;;;20.31;45.07
65175;BME280;51761;42.126;24.752;2023-05-11T11:03:13;100068.75;;;20.71;42.61
65175;BME280;51761;42.126;24.752;2023-05-11T11:05:39;100091.59;;;21.08;43.36
65175;BME280;51761;42.126;24.752;2023-05-11T11:08:08;100089.78;;;21.20;41.67
65175;BME280;51761;42.126;24.752;2023-05-11T11:10:38;100092.13;;;20.98;41.06
65175;BME280;51761;42.126;24.752;2023-05-11T11:13:06;100083.28;;;20.64;41.86
65175;BME280;51761;42.126;24.752;2023-05-11T11:18:30;100080.91;;;20.30;42.44
65175;BME280;51761;42.126;24.752;2023-05-11T11:20:59;100061.94;;;20.03;44.58
65175;BME280;51761;42.126;24.752;2023-05-11T11:23:41;100071.81;;;20.08;43.74
65175;BME280;51761;42.126;24.752;2023-05-11T11:26:09;100041.16;;;19.61;45.03
65175;BME280;51761;42.126;24.752;2023-05-11T11:31:28;100068.88;;;19.22;45.61
65175;BME280;51761;42.126;24.752;2023-05-11T11:33:55;100073.31;;;19.49;45.42
65175;BME280;51761;42.126;24.752;2023-05-11T11:39:24;100057.72;;;19.36;44.66
65175;BME280;51761;42.126;24.752;2023-05-11T11:42:04;100061.63;;;19.65;43.94
65175;BME280;51761;42.126;24.752;2023-05-11T11:44:32;100058.66;;;19.60;44.78
65175;BME280;51761;42.126;24.752;2023-05-11T11:47:17;100031.75;;;19.46;45.08
65175;BME280;51761;42.126;24.752;2023-05-11T11:49:51;100055.19;;;19.56;44.64
65175;BME280;51761;42.126;24.752;2023-05-11T11:54:53;100044.50;;;19.60;44.31
65175;BME280;51761;42.126;24.752;2023-05-11T12:00:04;100022.78;;;19.57;43.89
65175;BME280;51761;42.126;24.752;2023-05-11T12:02:32;100017.44;;;19.32;45.47
65175;BME280;51761;42.126;24.752;2023-05-11T12:05:17;100006.41;;;19.25;44.37
65175;BME280;51761;42.126;24.752;2023-05-11T12:07:50;100022.47;;;19.37;45.39
65175;BME280;51761;42.126;24.752;2023-05-11T12:10:18;100025.09;;;19.67;44.86
65175;BME280;51761;42.126;24.752;2023-05-11T12:12:45;100019.94;;;19.39;45.07
65175;BME280;51761;42.126;24.752;2023-05-11T12:15:29;99994.13;;;19.10;45.48
65175;BME280;51761;42.126;24.752;2023-05-11T12:17:56;100008.63;;;19.30;45.17
65175;BME280;51761;42.126;24.752;2023-05-11T12:20:22;99993.50;;;19.15;44.95
65175;BME280;51761;42.126;24.752;2023-05-11T12:22:48;100006.72;;;19.27;44.26
65175;BME280;51761;42.126;24.752;2023-05-11T12:25:15;100001.06;;;19.18;44.33
65175;BME280;51761;42.126;24.752;2023-05-11T12:27:49;99991.13;;;19.05;44.94
65175;BME280;51761;42.126;24.752;2023-05-11T12:30:22;100001.06;;;19.00;44.65
65175;BME280;51761;42.126;24.752;2023-05-11T12:32:48;99987.84;;;19.06;44.08
65175;BME280;51761;42.126;24.752;2023-05-11T12:35:24;99988.66;;;19.42;45.32
65175;BME280;51761;42.126;24.752;2023-05-11T12:37:50;99986.38;;;19.73;45.26
65175;BME280;51761;42.126;24.752;2023-05-11T12:40:16;99983.84;;;19.66;43.91
65175;BME280;51761;42.126;24.752;2023-05-11T12:42:55;99989.09;;;19.23;44.17
65175;BME280;51761;42.126;24.752;2023-05-11T12:45:21;99984.34;;;18.93;44.91
65175;BME280;51761;42.126;24.752;2023-05-11T12:47:48;99977.25;;;18.71;45.46
65175;BME280;51761;42.126;24.752;2023-05-11T12:50:15;99967.97;;;18.61;45.12
65175;BME280;51761;42.126;24.752;2023-05-11T12:52:41;99947.84;;;18.68;43.77
65175;BME280;51761;42.126;24.752;2023-05-11T12:55:06;99934.81;;;18.71;45.14
65175;BME280;51761;42.126;24.752;2023-05-11T12:57:33;99935.13;;;18.73;43.93
65175;BME280;51761;42.126;24.752;2023-05-11T13:02:50;99957.97;;;19.23;44.80
65175;BME280;51761;42.126;24.752;2023-05-11T13:05:16;99955.44;;;19.07;44.64
65175;BME280;51761;42.126;24.752;2023-05-11T13:07:43;99953.22;;;18.93;45.09
65175;BME280;51761;42.126;24.752;2023-05-11T13:10:10;99950.09;;;18.82;46.09
65175;BME280;51761;42.126;24.752;2023-05-11T13:12:49;99948.81;;;18.83;46.04
65175;BME280;51761;42.126;24.752;2023-05-11T13:15:20;99942.38;;;19.01;47.23
65175;BME280;51761;42.126;24.752;2023-05-11T13:17:46;99945.34;;;18.97;44.96
65175;BME280;51761;42.126;24.752;2023-05-11T13:22:48;99939.53;;;18.74;45.47
65175;BME280;51761;42.126;24.752;2023-05-11T13:25:15;99944.72;;;18.66;44.79